sensor_id;sensor_type;location;lat;lon;timestamp;P1;durP1;ratioP1;P2;durP2;ratioP2
43813;SDS011;29669;55.706;37.656;2023-03-14T00:01:27;2.88;;;2.08;;
43813;SDS011;29669;55.706;37.656;2023-03-14T00:03:54;2.33;;;1.80;;
43813;SDS011;29669;55.706;37.656;2023-03-14T00:06:43;3.83;;;1.83;;
43813;SDS011;29669;55.706;37.656;2023-03-14T00:09:30;4.95;;;2.20;;
43813;SDS011;29669;55.706;37.656;2023-03-14T00:12:17;2.83;;;1.45;;
43813;SDS011;29669;55.706;37.656;2023-03-14T00:15:04;3.00;;;2.58;;
43813;SDS011;29669;55.706;37.656;2023-03-14T00:17:55;2.80;;;1.60;;
43813;SDS011;29669;55.706;37.656;2023-03-14T00:20:42;5.13;;;1.98;;
43813;SDS011;29669;55.706;37.656;2023-03-14T00:23:29;5.25;;;1.90;;
43813;SDS011;29669;55.706;37.656;2023-03-14T00:26:20;1.77;;;1.20;;
43813;SDS011;29669;55.706;37.656;2023-03-14T00:29:07;3.15;;;1.73;;
43813;SDS011;29669;55.706;37.656;2023-03-14T00:35:06;2.95;;;1.73;;
43813;SDS011;29669;55.706;37.656;2023-03-14T00:37:53;3.85;;;1.70;;
43813;SDS011;29669;55.706;37.656;2023-03-14T00:40:47;4.30;;;2.13;;
43813;SDS011;29669;55.706;37.656;2023-03-14T00:43:59;1.92;;;1.73;;
43813;SDS011;29669;55.706;37.656;2023-03-14T00:46:46;3.08;;;1.70;;
43813;SDS011;29669;55.706;37.656;2023-03-14T00:49:32;2.38;;;1.48;;
43813;SDS011;29669;55.706;37.656;2023-03-14T00:52:19;3.83;;;1.40;;
43813;SDS011;29669;55.706;37.656;2023-03-14T00:54:47;3.15;;;1.70;;
43813;SDS011;29669;55.706;37.656;2023-03-14T00:57:14;1.70;;;1.40;;
43813;SDS011;29669;55.706;37.656;2023-03-14T00:59:42;4.85;;;1.65;;
43813;SDS011;29669;55.706;37.656;2023-03-14T01:02:10;4.10;;;1.60;;
43813;SDS011;29669;55.706;37.656;2023-03-14T01:04:38;2.28;;;1.40;;
43813;SDS011;29669;55.706;37.656;2023-03-14T01:07:06;1.50;;;1.40;;
43813;SDS011;29669;55.706;37.656;2023-03-14T01:09:34;2.38;;;1.55;;
43813;SDS011;29669;55.706;37.656;2023-03-14T01:12:02;1.42;;;1.27;;
43813;SDS011;29669;55.706;37.656;2023-03-14T01:14:31;4.35;;;1.65;;
43813;SDS011;29669;55.706;37.656;2023-03-14T01:16:59;2.78;;;1.45;;
43813;SDS011;29669;55.706;37.656;2023-03-14T01:19:47;2.47;;;1.40;;
43813;SDS011;29669;55.706;37.656;2023-03-14T01:22:35;2.40;;;1.20;;
43813;SDS011;29669;55.706;37.656;2023-03-14T01:25:22;3.22;;;1.40;;
43813;SDS011;29669;55.706;37.656;2023-03-14T01:28:08;2.58;;;1.90;;
43813;SDS011;29669;55.706;37.656;2023-03-14T01:30:55;2.65;;;1.83;;
43813;SDS011;29669;55.706;37.656;2023-03-14T01:33:23;2.25;;;1.67;;
43813;SDS011;29669;55.706;37.656;2023-03-14T01:35:51;2.53;;;1.70;;
43813;SDS011;29669;55.706;37.656;2023-03-14T01:38:19;7.70;;;1.45;;
43813;SDS011;29669;55.706;37.656;2023-03-14T01:40:48;2.22;;;1.75;;
43813;SDS011;29669;55.706;37.656;2023-03-14T01:43:17;3.67;;;1.83;;
43813;SDS011;29669;55.706;37.656;2023-03-14T01:46:13;5.47;;;4.22;;
43813;SDS011;29669;55.706;37.656;2023-03-14T01:49:04;2.30;;;1.75;;
43813;SDS011;29669;55.706;37.656;2023-03-14T01:51:36;2.42;;;1.65;;
43813;SDS011;29669;55.706;37.656;2023-03-14T01:54:12;2.30;;;1.48;;
43813;SDS011;29669;55.706;37.656;2023-03-14T01:57:28;3.72;;;1.63;;
43813;SDS011;29669;55.706;37.656;2023-03-14T02:00:08;5.25;;;1.70;;
43813;SDS011;29669;55.706;37.656;2023-03-14T02:02:45;1.50;;;1.40;;
43813;SDS011;29669;55.706;37.656;2023-03-14T02:05:18;4.18;;;1.80;;
43813;SDS011;29669;55.706;37.656;2023-03-14T02:08:02;2.08;;;1.60;;
43813;SDS011;29669;55.706;37.656;2023-03-14T02:10:41;2.58;;;1.50;;
43813;SDS011;29669;55.706;37.656;2023-03-14T02:13:16;2.47;;;1.37;;
43813;SDS011;29669;55.706;37.656;2023-03-14T02:15:59;3.70;;;2.00;;
43813;SDS011;29669;55.706;37.656;2023-03-14T02:18:47;4.88;;;1.60;;
43813;SDS011;29669;55.706;37.656;2023-03-14T02:24:08;2.55;;;1.75;;
43813;SDS011;29669;55.706;37.656;2023-03-14T02:29:52;3.10;;;1.88;;
43813;SDS011;29669;55.706;37.656;2023-03-14T02:32:29;2.83;;;2.30;;
43813;SDS011;29669;55.706;37.656;2023-03-14T02:35:01;3.40;;;2.45;;
43813;SDS011;29669;55.706;37.656;2023-03-14T02:37:42;3.40;;;2.50;;
43813;SDS011;29669;55.706;37.656;2023-03-14T02:40:15;8.52;;;2.70;;
43813;SDS011;29669;55.706;37.656;2023-03-14T02:42:43;4.00;;;2.20;;
43813;SDS011;29669;55.706;37.656;2023-03-14T02:47:47;5.78;;;2.88;;
43813;SDS011;29669;55.706;37.656;2023-03-14T02:50:26;4.05;;;2.13;;
43813;SDS011;29669;55.706;37.656;2023-03-14T02:52:58;3.22;;;2.38;;
43813;SDS011;29669;55.706;37.656;2023-03-14T02:55:26;4.13;;;2.75;;
43813;SDS011;29669;55.706;37.656;2023-03-14T02:58:00;4.00;;;2.55;;
43813;SDS011;29669;55.706;37.656;2023-03-14T03:00:30;4.68;;;3.33;;
43813;SDS011;29669;55.706;37.656;2023-03-14T03:02:58;4.55;;;2.53;;
43813;SDS011;29669;55.706;37.656;2023-03-14T03:05:25;3.15;;;2.85;;
43813;SDS011;29669;55.706;37.656;2023-03-14T03:07:56;7.30;;;2.90;;
43813;SDS011;29669;55.706;37.656;2023-03-14T03:10:24;6.57;;;2.97;;
43813;SDS011;29669;55.706;37.656;2023-03-14T03:12:54;6.53;;;2.70;;
43813;SDS011;29669;55.706;37.656;2023-03-14T03:15:25;5.25;;;3.08;;
43813;SDS011;29669;55.706;37.656;2023-03-14T03:17:53;5.95;;;2.63;;
43813;SDS011;29669;55.706;37.656;2023-03-14T03:20:25;6.82;;;2.80;;
43813;SDS011;29669;55.706;37.656;2023-03-14T03:22:55;7.18;;;3.65;;
43813;SDS011;29669;55.706;37.656;2023-03-14T03:25:23;5.57;;;2.83;;
43813;SDS011;29669;55.706;37.656;2023-03-14T03:27:51;6.90;;;3.30;;
43813;SDS011;29669;55.706;37.656;2023-03-14T03:30:22;3.88;;;2.47;;
43813;SDS011;29669;55.706;37.656;2023-03-14T03:32:50;5.50;;;2.70;;
43813;SDS011;29669;55.706;37.656;2023-03-14T03:35:18;4.43;;;2.85;;
43813;SDS011;29669;55.706;37.656;2023-03-14T03:37:45;8.80;;;4.25;;
43813;SDS011;29669;55.706;37.656;2023-03-14T03:40:13;5.82;;;3.10;;
43813;SDS011;29669;55.706;37.656;2023-03-14T03:42:44;9.05;;;5.03;;
43813;SDS011;29669;55.706;37.656;2023-03-14T03:45:12;4.90;;;3.80;;
43813;SDS011;29669;55.706;37.656;2023-03-14T03:47:49;5.30;;;3.53;;
43813;SDS011;29669;55.706;37.656;2023-03-14T03:50:17;5.40;;;3.63;;
43813;SDS011;29669;55.706;37.656;2023-03-14T03:52:48;11.25;;;4.22;;
43813;SDS011;29669;55.706;37.656;2023-03-14T03:55:17;6.53;;;3.58;;
43813;SDS011;29669;55.706;37.656;2023-03-14T03:57:46;4.13;;;3.03;;
43813;SDS011;29669;55.706;37.656;2023-03-14T04:00:13;5.97;;;3.42;;
43813;SDS011;29669;55.706;37.656;2023-03-14T04:02:44;8.00;;;4.25;;
43813;SDS011;29669;55.706;37.656;2023-03-14T04:05:15;7.78;;;5.15;;
43813;SDS011;29669;55.706;37.656;2023-03-14T04:07:52;7.57;;;4.25;;
43813;SDS011;29669;55.706;37.656;2023-03-14T04:10:28;6.88;;;4.43;;
43813;SDS011;29669;55.706;37.656;2023-03-14T04:13:07;5.75;;;3.50;;
43813;SDS011;29669;55.706;37.656;2023-03-14T04:15:37;10.18;;;4.88;;
43813;SDS011;29669;55.706;37.656;2023-03-14T04:18:15;8.90;;;3.92;;
43813;SDS011;29669;55.706;37.656;2023-03-14T04:20:43;8.82;;;3.88;;
43813;SDS011;29669;55.706;37.656;2023-03-14T04:23:21;9.23;;;4.65;;
43813;SDS011;29669;55.706;37.656;2023-03-14T04:25:54;8.52;;;4.80;;
43813;SDS011;29669;55.706;37.656;2023-03-14T04:28:24;5.80;;;4.25;;
43813;SDS011;29669;55.706;37.656;2023-03-14T04:30:54;8.60;;;3.97;;
43813;SDS011;29669;55.706;37.656;2023-03-14T04:33:24;11.43;;;4.60;;
43813;SDS011;29669;55.706;37.656;2023-03-14T04:35:55;5.47;;;3.92;;
43813;SDS011;29669;55.706;37.656;2023-03-14T04:38:25;7.13;;;4.63;;
43813;SDS011;29669;55.706;37.656;2023-03-14T04:40:54;9.65;;;4.13;;
43813;SDS011;29669;55.706;37.656;2023-03-14T04:43:26;9.85;;;4.32;;
43813;SDS011;29669;55.706;37.656;2023-03-14T04:46:15;7.50;;;5.53;;
43813;SDS011;29669;55.706;37.656;2023-03-14T04:48:45;12.68;;;5.07;;
43813;SDS011;29669;55.706;37.656;2023-03-14T04:51:14;11.93;;;6.10;;
43813;SDS011;29669;55.706;37.656;2023-03-14T04:53:42;8.18;;;4.63;;
43813;SDS011;29669;55.706;37.656;2023-03-14T04:56:12;7.43;;;4.30;;
43813;SDS011;29669;55.706;37.656;2023-03-14T04:58:42;13.70;;;5.20;;
43813;SDS011;29669;55.706;37.656;2023-03-14T05:01:14;5.63;;;3.88;;
43813;SDS011;29669;55.706;37.656;2023-03-14T05:03:51;18.88;;;5.32;;
43813;SDS011;29669;55.706;37.656;2023-03-14T05:06:28;10.80;;;4.80;;
43813;SDS011;29669;55.706;37.656;2023-03-14T05:09:10;8.48;;;5.57;;
43813;SDS011;29669;55.706;37.656;2023-03-14T05:12:06;9.93;;;4.68;;
43813;SDS011;29669;55.706;37.656;2023-03-14T05:14:57;8.02;;;5.03;;
43813;SDS011;29669;55.706;37.656;2023-03-14T05:17:39;11.98;;;4.70;;
43813;SDS011;29669;55.706;37.656;2023-03-14T05:20:30;13.48;;;4.72;;
43813;SDS011;29669;55.706;37.656;2023-03-14T05:23:34;12.75;;;5.30;;
43813;SDS011;29669;55.706;37.656;2023-03-14T05:26:34;8.82;;;4.65;;
43813;SDS011;29669;55.706;37.656;2023-03-14T05:29:21;8.98;;;4.63;;
43813;SDS011;29669;55.706;37.656;2023-03-14T05:32:12;11.32;;;4.60;;
43813;SDS011;29669;55.706;37.656;2023-03-14T05:35:00;9.55;;;5.30;;
43813;SDS011;29669;55.706;37.656;2023-03-14T05:37:41;6.03;;;4.03;;
43813;SDS011;29669;55.706;37.656;2023-03-14T05:40:28;13.02;;;5.43;;
43813;SDS011;29669;55.706;37.656;2023-03-14T05:43:25;10.05;;;4.65;;
43813;SDS011;29669;55.706;37.656;2023-03-14T05:46:09;8.55;;;4.10;;
43813;SDS011;29669;55.706;37.656;2023-03-14T05:49:05;10.90;;;4.90;;
43813;SDS011;29669;55.706;37.656;2023-03-14T05:52:02;6.75;;;4.30;;
43813;SDS011;29669;55.706;37.656;2023-03-14T05:54:58;5.72;;;3.30;;
43813;SDS011;29669;55.706;37.656;2023-03-14T05:57:49;6.75;;;3.70;;
43813;SDS011;29669;55.706;37.656;2023-03-14T06:00:34;8.80;;;4.27;;
43813;SDS011;29669;55.706;37.656;2023-03-14T06:03:26;6.95;;;4.03;;
43813;SDS011;29669;55.706;37.656;2023-03-14T06:05:57;8.73;;;3.35;;
43813;SDS011;29669;55.706;37.656;2023-03-14T06:08:26;7.80;;;3.97;;
43813;SDS011;29669;55.706;37.656;2023-03-14T06:10:54;8.93;;;4.05;;
43813;SDS011;29669;55.706;37.656;2023-03-14T06:13:31;5.47;;;2.95;;
43813;SDS011;29669;55.706;37.656;2023-03-14T06:16:02;12.63;;;4.20;;
43813;SDS011;29669;55.706;37.656;2023-03-14T06:18:32;7.20;;;4.03;;
43813;SDS011;29669;55.706;37.656;2023-03-14T06:21:00;6.70;;;3.55;;
43813;SDS011;29669;55.706;37.656;2023-03-14T06:23:29;10.95;;;4.80;;
43813;SDS011;29669;55.706;37.656;2023-03-14T06:25:59;5.35;;;3.42;;
43813;SDS011;29669;55.706;37.656;2023-03-14T06:28:29;7.30;;;3.97;;
43813;SDS011;29669;55.706;37.656;2023-03-14T06:31:01;4.03;;;2.90;;
43813;SDS011;29669;55.706;37.656;2023-03-14T06:33:36;9.30;;;3.67;;
43813;SDS011;29669;55.706;37.656;2023-03-14T06:36:04;9.73;;;3.30;;
43813;SDS011;29669;55.706;37.656;2023-03-14T06:38:34;8.88;;;3.10;;
43813;SDS011;29669;55.706;37.656;2023-03-14T06:41:04;6.65;;;3.63;;
43813;SDS011;29669;55.706;37.656;2023-03-14T06:43:53;10.23;;;4.35;;
43813;SDS011;29669;55.706;37.656;2023-03-14T06:46:29;6.18;;;3.75;;
43813;SDS011;29669;55.706;37.656;2023-03-14T06:48:59;5.80;;;3.33;;
43813;SDS011;29669;55.706;37.656;2023-03-14T06:51:27;15.02;;;5.88;;
43813;SDS011;29669;55.706;37.656;2023-03-14T06:53:56;13.95;;;4.40;;
43813;SDS011;29669;55.706;37.656;2023-03-14T06:56:29;6.10;;;3.72;;
43813;SDS011;29669;55.706;37.656;2023-03-14T06:59:00;5.95;;;3.70;;
43813;SDS011;29669;55.706;37.656;2023-03-14T07:01:31;8.93;;;3.58;;
43813;SDS011;29669;55.706;37.656;2023-03-14T07:04:09;5.72;;;3.35;;
43813;SDS011;29669;55.706;37.656;2023-03-14T07:06:44;5.90;;;3.35;;
43813;SDS011;29669;55.706;37.656;2023-03-14T07:09:15;6.72;;;4.00;;
43813;SDS011;29669;55.706;37.656;2023-03-14T07:11:51;7.07;;;3.88;;
43813;SDS011;29669;55.706;37.656;2023-03-14T07:14:19;6.47;;;3.42;;
43813;SDS011;29669;55.706;37.656;2023-03-14T07:16:49;7.88;;;3.83;;
43813;SDS011;29669;55.706;37.656;2023-03-14T07:19:19;11.88;;;3.53;;
43813;SDS011;29669;55.706;37.656;2023-03-14T07:21:47;7.78;;;3.05;;
43813;SDS011;29669;55.706;37.656;2023-03-14T07:24:20;5.35;;;3.53;;
43813;SDS011;29669;55.706;37.656;2023-03-14T07:26:48;8.63;;;3.50;;
43813;SDS011;29669;55.706;37.656;2023-03-14T07:29:16;6.38;;;3.13;;
43813;SDS011;29669;55.706;37.656;2023-03-14T07:31:48;8.98;;;3.58;;
43813;SDS011;29669;55.706;37.656;2023-03-14T07:34:19;3.90;;;2.95;;
43813;SDS011;29669;55.706;37.656;2023-03-14T07:36:48;7.97;;;4.03;;
43813;SDS011;29669;55.706;37.656;2023-03-14T07:39:17;7.20;;;3.13;;
43813;SDS011;29669;55.706;37.656;2023-03-14T07:41:58;7.10;;;2.88;;
43813;SDS011;29669;55.706;37.656;2023-03-14T07:44:26;6.15;;;3.22;;
43813;SDS011;29669;55.706;37.656;2023-03-14T07:46:54;6.18;;;3.85;;
43813;SDS011;29669;55.706;37.656;2023-03-14T07:49:22;10.25;;;3.22;;
43813;SDS011;29669;55.706;37.656;2023-03-14T07:51:53;5.95;;;3.22;;
43813;SDS011;29669;55.706;37.656;2023-03-14T07:54:20;8.30;;;3.83;;
43813;SDS011;29669;55.706;37.656;2023-03-14T07:56:48;7.28;;;3.50;;
43813;SDS011;29669;55.706;37.656;2023-03-14T07:59:16;7.50;;;3.47;;
43813;SDS011;29669;55.706;37.656;2023-03-14T08:01:44;5.18;;;3.10;;
43813;SDS011;29669;55.706;37.656;2023-03-14T08:04:12;7.10;;;2.95;;
43813;SDS011;29669;55.706;37.656;2023-03-14T08:06:42;9.65;;;3.20;;
43813;SDS011;29669;55.706;37.656;2023-03-14T08:09:13;6.10;;;3.45;;
43813;SDS011;29669;55.706;37.656;2023-03-14T08:11:42;8.00;;;4.13;;
43813;SDS011;29669;55.706;37.656;2023-03-14T08:14:11;7.78;;;4.03;;
43813;SDS011;29669;55.706;37.656;2023-03-14T08:16:41;8.70;;;3.90;;
43813;SDS011;29669;55.706;37.656;2023-03-14T08:19:10;4.80;;;3.55;;
43813;SDS011;29669;55.706;37.656;2023-03-14T08:21:38;7.07;;;3.60;;
43813;SDS011;29669;55.706;37.656;2023-03-14T08:24:06;5.43;;;2.78;;
43813;SDS011;29669;55.706;37.656;2023-03-14T08:26:34;8.02;;;4.10;;
43813;SDS011;29669;55.706;37.656;2023-03-14T08:29:03;8.70;;;3.83;;
43813;SDS011;29669;55.706;37.656;2023-03-14T08:31:31;6.88;;;4.05;;
43813;SDS011;29669;55.706;37.656;2023-03-14T08:33:59;10.65;;;3.88;;
43813;SDS011;29669;55.706;37.656;2023-03-14T08:36:30;10.23;;;4.18;;
43813;SDS011;29669;55.706;37.656;2023-03-14T08:39:02;9.88;;;3.35;;
43813;SDS011;29669;55.706;37.656;2023-03-14T08:41:31;5.07;;;3.50;;
43813;SDS011;29669;55.706;37.656;2023-03-14T08:43:58;6.85;;;3.72;;
43813;SDS011;29669;55.706;37.656;2023-03-14T08:46:26;8.43;;;3.80;;
43813;SDS011;29669;55.706;37.656;2023-03-14T08:48:54;5.38;;;3.20;;
43813;SDS011;29669;55.706;37.656;2023-03-14T08:51:25;8.68;;;3.97;;
43813;SDS011;29669;55.706;37.656;2023-03-14T08:53:53;9.18;;;4.22;;
43813;SDS011;29669;55.706;37.656;2023-03-14T08:56:21;6.88;;;3.58;;
43813;SDS011;29669;55.706;37.656;2023-03-14T08:58:56;8.10;;;3.63;;
43813;SDS011;29669;55.706;37.656;2023-03-14T09:01:24;6.63;;;3.30;;
43813;SDS011;29669;55.706;37.656;2023-03-14T09:03:57;7.30;;;3.85;;
43813;SDS011;29669;55.706;37.656;2023-03-14T09:06:25;5.25;;;2.78;;
43813;SDS011;29669;55.706;37.656;2023-03-14T09:08:52;14.23;;;4.60;;
43813;SDS011;29669;55.706;37.656;2023-03-14T09:11:20;7.05;;;3.92;;
43813;SDS011;29669;55.706;37.656;2023-03-14T09:13:50;8.55;;;3.67;;
43813;SDS011;29669;55.706;37.656;2023-03-14T09:16:23;7.43;;;4.03;;
43813;SDS011;29669;55.706;37.656;2023-03-14T09:18:51;3.92;;;3.15;;
43813;SDS011;29669;55.706;37.656;2023-03-14T09:21:29;6.18;;;3.55;;
43813;SDS011;29669;55.706;37.656;2023-03-14T09:23:56;10.45;;;3.38;;
43813;SDS011;29669;55.706;37.656;2023-03-14T09:26:24;7.75;;;3.80;;
43813;SDS011;29669;55.706;37.656;2023-03-14T09:28:52;9.80;;;3.50;;
43813;SDS011;29669;55.706;37.656;2023-03-14T09:31:20;7.45;;;3.70;;
43813;SDS011;29669;55.706;37.656;2023-03-14T09:33:49;7.38;;;3.65;;
43813;SDS011;29669;55.706;37.656;2023-03-14T09:36:17;5.82;;;3.38;;
43813;SDS011;29669;55.706;37.656;2023-03-14T09:38:47;10.73;;;3.50;;
43813;SDS011;29669;55.706;37.656;2023-03-14T09:41:25;6.65;;;3.38;;
43813;SDS011;29669;55.706;37.656;2023-03-14T09:44:06;4.60;;;3.45;;
43813;SDS011;29669;55.706;37.656;2023-03-14T09:46:36;5.15;;;3.25;;
43813;SDS011;29669;55.706;37.656;2023-03-14T09:49:16;5.05;;;3.55;;
43813;SDS011;29669;55.706;37.656;2023-03-14T09:52:12;6.43;;;4.15;;
43813;SDS011;29669;55.706;37.656;2023-03-14T09:54:54;6.88;;;3.95;;
43813;SDS011;29669;55.706;37.656;2023-03-14T09:57:26;6.45;;;3.53;;
43813;SDS011;29669;55.706;37.656;2023-03-14T09:59:57;5.68;;;3.38;;
43813;SDS011;29669;55.706;37.656;2023-03-14T10:02:37;9.57;;;4.10;;
43813;SDS011;29669;55.706;37.656;2023-03-14T10:05:15;5.85;;;3.97;;
43813;SDS011;29669;55.706;37.656;2023-03-14T10:07:44;7.55;;;4.00;;
43813;SDS011;29669;55.706;37.656;2023-03-14T10:10:13;5.28;;;3.50;;
43813;SDS011;29669;55.706;37.656;2023-03-14T10:12:46;8.95;;;4.40;;
43813;SDS011;29669;55.706;37.656;2023-03-14T10:15:24;9.35;;;4.30;;
43813;SDS011;29669;55.706;37.656;2023-03-14T10:17:54;4.32;;;3.80;;
43813;SDS011;29669;55.706;37.656;2023-03-14T10:20:35;12.27;;;3.88;;
43813;SDS011;29669;55.706;37.656;2023-03-14T10:28:34;10.90;;;4.30;;
43813;SDS011;29669;55.706;37.656;2023-03-14T10:31:13;6.28;;;3.17;;
43813;SDS011;29669;55.706;37.656;2023-03-14T10:33:43;5.30;;;3.63;;
43813;SDS011;29669;55.706;37.656;2023-03-14T10:36:27;7.03;;;3.92;;
43813;SDS011;29669;55.706;37.656;2023-03-14T10:42:06;7.20;;;3.47;;
43813;SDS011;29669;55.706;37.656;2023-03-14T10:44:42;6.88;;;3.50;;
43813;SDS011;29669;55.706;37.656;2023-03-14T10:47:18;8.63;;;3.65;;
43813;SDS011;29669;55.706;37.656;2023-03-14T10:49:49;5.90;;;3.97;;
43813;SDS011;29669;55.706;37.656;2023-03-14T10:55:15;5.82;;;3.22;;
43813;SDS011;29669;55.706;37.656;2023-03-14T10:57:44;7.75;;;3.85;;
43813;SDS011;29669;55.706;37.656;2023-03-14T11:00:15;5.00;;;4.05;;
43813;SDS011;29669;55.706;37.656;2023-03-14T11:05:47;5.93;;;3.70;;
43813;SDS011;29669;55.706;37.656;2023-03-14T11:11:06;4.43;;;3.22;;
43813;SDS011;29669;55.706;37.656;2023-03-14T11:16:42;7.97;;;3.38;;
43813;SDS011;29669;55.706;37.656;2023-03-14T11:30:52;7.97;;;4.15;;
43813;SDS011;29669;55.706;37.656;2023-03-14T11:33:59;6.65;;;3.90;;
43813;SDS011;29669;55.706;37.656;2023-03-14T11:36:27;6.65;;;3.85;;
43813;SDS011;29669;55.706;37.656;2023-03-14T11:39:07;9.65;;;3.38;;
43813;SDS011;29669;55.706;37.656;2023-03-14T11:41:42;7.05;;;3.38;;
43813;SDS011;29669;55.706;37.656;2023-03-14T11:44:18;4.95;;;3.15;;
43813;SDS011;29669;55.706;37.656;2023-03-14T11:47:02;8.57;;;3.60;;
43813;SDS011;29669;55.706;37.656;2023-03-14T11:52:35;4.97;;;3.38;;
43813;SDS011;29669;55.706;37.656;2023-03-14T11:57:46;6.07;;;3.15;;
43813;SDS011;29669;55.706;37.656;2023-03-14T12:00:21;4.18;;;2.92;;
43813;SDS011;29669;55.706;37.656;2023-03-14T12:02:55;4.88;;;3.85;;
43813;SDS011;29669;55.706;37.656;2023-03-14T12:11:14;5.95;;;3.45;;
43813;SDS011;29669;55.706;37.656;2023-03-14T12:14:01;5.75;;;3.65;;
43813;SDS011;29669;55.706;37.656;2023-03-14T12:16:38;7.50;;;3.53;;
43813;SDS011;29669;55.706;37.656;2023-03-14T12:19:14;4.03;;;3.00;;
43813;SDS011;29669;55.706;37.656;2023-03-14T12:24:33;5.43;;;3.67;;
43813;SDS011;29669;55.706;37.656;2023-03-14T12:27:05;3.55;;;3.00;;
43813;SDS011;29669;55.706;37.656;2023-03-14T12:29:59;8.75;;;3.00;;
43813;SDS011;29669;55.706;37.656;2023-03-14T12:32:30;7.20;;;3.05;;
43813;SDS011;29669;55.706;37.656;2023-03-14T12:38:32;4.05;;;3.00;;
43813;SDS011;29669;55.706;37.656;2023-03-14T12:41:17;12.27;;;3.20;;
43813;SDS011;29669;55.706;37.656;2023-03-14T12:43:53;5.55;;;3.50;;
43813;SDS011;29669;55.706;37.656;2023-03-14T12:46:22;5.47;;;3.13;;
43813;SDS011;29669;55.706;37.656;2023-03-14T12:51:35;5.45;;;3.40;;
43813;SDS011;29669;55.706;37.656;2023-03-14T12:56:50;3.90;;;3.20;;
43813;SDS011;29669;55.706;37.656;2023-03-14T13:07:12;5.47;;;3.05;;
43813;SDS011;29669;55.706;37.656;2023-03-14T13:12:40;7.85;;;3.15;;
43813;SDS011;29669;55.706;37.656;2023-03-14T13:15:20;5.75;;;3.33;;
43813;SDS011;29669;55.706;37.656;2023-03-14T13:17:51;8.93;;;3.63;;
43813;SDS011;29669;55.706;37.656;2023-03-14T13:20:24;5.68;;;3.20;;
43813;SDS011;29669;55.706;37.656;2023-03-14T13:22:58;9.40;;;4.22;;
43813;SDS011;29669;55.706;37.656;2023-03-14T13:25:33;8.45;;;4.30;;
43813;SDS011;29669;55.706;37.656;2023-03-14T13:28:02;9.38;;;3.55;;
43813;SDS011;29669;55.706;37.656;2023-03-14T13:30:46;5.70;;;3.03;;
43813;SDS011;29669;55.706;37.656;2023-03-14T13:33:19;7.80;;;3.53;;
43813;SDS011;29669;55.706;37.656;2023-03-14T13:35:49;8.18;;;3.80;;
43813;SDS011;29669;55.706;37.656;2023-03-14T13:38:23;7.00;;;3.22;;
43813;SDS011;29669;55.706;37.656;2023-03-14T13:40:56;7.82;;;3.30;;
43813;SDS011;29669;55.706;37.656;2023-03-14T13:43:33;7.30;;;3.40;;
43813;SDS011;29669;55.706;37.656;2023-03-14T13:46:20;6.63;;;3.03;;
43813;SDS011;29669;55.706;37.656;2023-03-14T13:48:50;4.57;;;2.67;;
43813;SDS011;29669;55.706;37.656;2023-03-14T13:51:22;5.80;;;3.65;;
43813;SDS011;29669;55.706;37.656;2023-03-14T13:53:53;7.85;;;3.55;;
43813;SDS011;29669;55.706;37.656;2023-03-14T13:56:23;8.50;;;3.50;;
43813;SDS011;29669;55.706;37.656;2023-03-14T13:58:53;6.28;;;3.33;;
43813;SDS011;29669;55.706;37.656;2023-03-14T14:01:27;7.13;;;3.75;;
43813;SDS011;29669;55.706;37.656;2023-03-14T14:04:14;5.70;;;3.47;;
43813;SDS011;29669;55.706;37.656;2023-03-14T14:06:44;5.22;;;3.75;;
43813;SDS011;29669;55.706;37.656;2023-03-14T14:09:20;5.50;;;3.95;;
43813;SDS011;29669;55.706;37.656;2023-03-14T14:11:54;6.68;;;3.70;;
43813;SDS011;29669;55.706;37.656;2023-03-14T14:14:53;9.50;;;4.07;;
43813;SDS011;29669;55.706;37.656;2023-03-14T14:17:37;9.52;;;3.70;;
43813;SDS011;29669;55.706;37.656;2023-03-14T14:23:03;8.88;;;4.20;;
43813;SDS011;29669;55.706;37.656;2023-03-14T14:25:32;7.55;;;3.70;;
43813;SDS011;29669;55.706;37.656;2023-03-14T14:28:13;6.63;;;3.60;;
43813;SDS011;29669;55.706;37.656;2023-03-14T14:30:42;9.02;;;3.35;;
43813;SDS011;29669;55.706;37.656;2023-03-14T14:33:15;7.57;;;4.68;;
43813;SDS011;29669;55.706;37.656;2023-03-14T14:35:52;5.63;;;3.67;;
43813;SDS011;29669;55.706;37.656;2023-03-14T14:38:21;7.07;;;4.28;;
43813;SDS011;29669;55.706;37.656;2023-03-14T14:40:50;4.40;;;3.67;;
43813;SDS011;29669;55.706;37.656;2023-03-14T14:43:24;5.53;;;3.60;;
43813;SDS011;29669;55.706;37.656;2023-03-14T14:45:55;5.00;;;3.47;;
43813;SDS011;29669;55.706;37.656;2023-03-14T14:48:25;6.65;;;4.75;;
43813;SDS011;29669;55.706;37.656;2023-03-14T14:56:24;9.02;;;4.05;;
43813;SDS011;29669;55.706;37.656;2023-03-14T14:59:00;6.22;;;3.65;;
43813;SDS011;29669;55.706;37.656;2023-03-14T15:01:31;5.93;;;3.67;;
43813;SDS011;29669;55.706;37.656;2023-03-14T15:04:09;7.18;;;4.30;;
43813;SDS011;29669;55.706;37.656;2023-03-14T15:06:42;5.25;;;3.60;;
43813;SDS011;29669;55.706;37.656;2023-03-14T15:09:13;7.10;;;4.13;;
43813;SDS011;29669;55.706;37.656;2023-03-14T15:11:42;9.73;;;3.78;;
43813;SDS011;29669;55.706;37.656;2023-03-14T15:14:09;5.72;;;3.13;;
43813;SDS011;29669;55.706;37.656;2023-03-14T15:16:38;5.30;;;3.58;;
43813;SDS011;29669;55.706;37.656;2023-03-14T15:19:12;5.35;;;4.53;;
43813;SDS011;29669;55.706;37.656;2023-03-14T15:21:53;7.22;;;3.65;;
43813;SDS011;29669;55.706;37.656;2023-03-14T15:24:21;6.57;;;3.85;;
43813;SDS011;29669;55.706;37.656;2023-03-14T15:26:50;6.40;;;4.25;;
43813;SDS011;29669;55.706;37.656;2023-03-14T15:29:18;7.93;;;4.75;;
43813;SDS011;29669;55.706;37.656;2023-03-14T15:31:46;8.25;;;4.40;;
43813;SDS011;29669;55.706;37.656;2023-03-14T15:34:15;8.55;;;4.25;;
43813;SDS011;29669;55.706;37.656;2023-03-14T15:36:46;8.88;;;4.65;;
43813;SDS011;29669;55.706;37.656;2023-03-14T15:39:14;9.23;;;4.13;;
43813;SDS011;29669;55.706;37.656;2023-03-14T15:41:42;9.02;;;4.47;;
43813;SDS011;29669;55.706;37.656;2023-03-14T15:44:10;7.57;;;3.95;;
43813;SDS011;29669;55.706;37.656;2023-03-14T15:46:37;5.32;;;3.60;;
43813;SDS011;29669;55.706;37.656;2023-03-14T15:49:05;6.88;;;4.10;;
43813;SDS011;29669;55.706;37.656;2023-03-14T15:51:35;5.22;;;3.65;;
43813;SDS011;29669;55.706;37.656;2023-03-14T15:54:03;4.13;;;3.35;;
43813;SDS011;29669;55.706;37.656;2023-03-14T15:56:31;10.80;;;4.40;;
43813;SDS011;29669;55.706;37.656;2023-03-14T15:58:59;5.93;;;3.95;;
43813;SDS011;29669;55.706;37.656;2023-03-14T16:01:27;10.15;;;4.57;;
43813;SDS011;29669;55.706;37.656;2023-03-14T16:03:55;6.60;;;3.80;;
43813;SDS011;29669;55.706;37.656;2023-03-14T16:06:25;8.38;;;4.10;;
43813;SDS011;29669;55.706;37.656;2023-03-14T16:08:53;6.13;;;4.03;;
43813;SDS011;29669;55.706;37.656;2023-03-14T16:11:24;11.63;;;4.13;;
43813;SDS011;29669;55.706;37.656;2023-03-14T16:13:51;8.27;;;3.78;;
43813;SDS011;29669;55.706;37.656;2023-03-14T16:16:19;8.65;;;3.80;;
43813;SDS011;29669;55.706;37.656;2023-03-14T16:18:47;6.78;;;3.92;;
43813;SDS011;29669;55.706;37.656;2023-03-14T16:21:16;5.55;;;3.55;;
43813;SDS011;29669;55.706;37.656;2023-03-14T16:23:45;6.43;;;3.80;;
43813;SDS011;29669;55.706;37.656;2023-03-14T16:26:16;7.10;;;3.72;;
43813;SDS011;29669;55.706;37.656;2023-03-14T16:28:46;9.30;;;3.63;;
43813;SDS011;29669;55.706;37.656;2023-03-14T16:31:15;6.80;;;3.85;;
43813;SDS011;29669;55.706;37.656;2023-03-14T16:33:47;7.82;;;3.70;;
43813;SDS011;29669;55.706;37.656;2023-03-14T16:36:17;13.43;;;4.30;;
43813;SDS011;29669;55.706;37.656;2023-03-14T16:38:45;6.25;;;3.95;;
43813;SDS011;29669;55.706;37.656;2023-03-14T16:41:17;6.68;;;3.42;;